sensor_id;sensor_type;location;lat;lon;timestamp;pressure;altitude;pressure_sealevel;temperature;humidity
8416;BME280;4245;42.120;24.732;2023-04-03T00:00:10;98620.16;;;12.95;56.65
8416;BME280;4245;42.120;24.732;2023-04-03T00:02:37;98612.59;;;13.00;56.69
8416;BME280;4245;42.120;24.732;2023-04-03T00:05:06;98617.06;;;13.00;56.63
8416;BME280;4245;42.120;24.732;2023-04-03T00:07:33;98617.31;;;12.78;58.15
8416;BME280;4245;42.120;24.732;2023-04-03T00:10:02;98621.66;;;12.88;57.81
8416;BME280;4245;42.120;24.732;2023-04-03T00:12:29;98621.19;;;12.64;58.50
8416;BME280;4245;42.120;24.732;2023-04-03T00:14:56;98629.31;;;12.53;59.06
8416;BME280;4245;42.120;24.732;2023-04-03T00:17:23;98624.56;;;12.56;59.00
8416;BME280;4245;42.120;24.732;2023-04-03T00:19:50;98625.31;;;12.68;58.98
8416;BME280;4245;42.120;24.732;2023-04-03T00:22:16;98632.13;;;12.61;59.72
8416;BME280;4245;42.120;24.732;2023-04-03T00:24:43;98619.25;;;12.66;59.00
8416;BME280;4245;42.120;24.732;2023-04-03T00:27:12;98617.88;;;12.72;58.88
8416;BME280;4245;42.120;24.732;2023-04-03T00:29:39;98613.91;;;12.66;60.01
8416;BME280;4245;42.120;24.732;2023-04-03T00:32:06;98617.03;;;12.71;60.22
8416;BME280;4245;42.120;24.732;2023-04-03T00:34:33;98620.09;;;12.67;60.95
8416;BME280;4245;42.120;24.732;2023-04-03T00:36:59;98617.41;;;12.57;61.06
8416;BME280;4245;42.120;24.732;2023-04-03T00:39:27;98611.66;;;12.61;59.53
8416;BME280;4245;42.120;24.732;2023-04-03T00:41:54;98618.38;;;12.56;60.58
8416;BME280;4245;42.120;24.732;2023-04-03T00:47:29;98615.72;;;12.56;61.77
8416;BME280;4245;42.120;24.732;2023-04-03T00:49:57;98613.75;;;12.48;61.86
8416;BME280;4245;42.120;24.732;2023-04-03T00:52:27;98611.09;;;12.58;60.25
8416;BME280;4245;42.120;24.732;2023-04-03T00:54:58;98622.59;;;12.58;61.42
8416;BME280;4245;42.120;24.732;2023-04-03T00:57:27;98618.41;;;12.66;61.39
8416;BME280;4245;42.120;24.732;2023-04-03T01:00:00;98609.44;;;12.67;61.43
8416;BME280;4245;42.120;24.732;2023-04-03T01:02:28;98615.03;;;12.63;61.99
8416;BME280;4245;42.120;24.732;2023-04-03T01:04:55;98624.03;;;12.72;61.85
8416;BME280;4245;42.120;24.732;2023-04-03T01:07:24;98615.03;;;12.73;61.60
8416;BME280;4245;42.120;24.732;2023-04-03T01:09:55;98613.78;;;12.68;62.29
8416;BME280;4245;42.120;24.732;2023-04-03T01:12:24;98616.00;;;12.53;63.57
8416;BME280;4245;42.120;24.732;2023-04-03T01:14:53;98610.91;;;12.50;64.01
8416;BME280;4245;42.120;24.732;2023-04-03T01:17:33;98614.84;;;12.46;64.09
8416;BME280;4245;42.120;24.732;2023-04-03T01:23:06;98608.22;;;12.40;65.12
8416;BME280;4245;42.120;24.732;2023-04-03T01:25:39;98614.44;;;12.50;64.04
8416;BME280;4245;42.120;24.732;2023-04-03T01:28:08;98612.47;;;12.43;64.81
8416;BME280;4245;42.120;24.732;2023-04-03T01:30:41;98618.19;;;12.38;65.55
8416;BME280;4245;42.120;24.732;2023-04-03T01:33:10;98609.75;;;12.33;65.98
8416;BME280;4245;42.120;24.732;2023-04-03T01:35:38;98612.88;;;12.38;64.82
8416;BME280;4245;42.120;24.732;2023-04-03T01:38:04;98598.28;;;12.33;66.36
8416;BME280;4245;42.120;24.732;2023-04-03T01:40:32;98607.66;;;12.37;65.33
8416;BME280;4245;42.120;24.732;2023-04-03T01:42:59;98611.59;;;12.33;65.48
8416;BME280;4245;42.120;24.732;2023-04-03T01:45:26;98604.53;;;12.22;66.16
8416;BME280;4245;42.120;24.732;2023-04-03T01:47:53;98614.50;;;12.30;65.12
8416;BME280;4245;42.120;24.732;2023-04-03T01:50:22;98616.03;;;12.23;65.72
8416;BME280;4245;42.120;24.732;2023-04-03T01:52:49;98626.09;;;12.19;66.24
8416;BME280;4245;42.120;24.732;2023-04-03T01:55:16;98620.78;;;12.19;66.54
8416;BME280;4245;42.120;24.732;2023-04-03T01:57:43;98621.06;;;12.26;65.31
8416;BME280;4245;42.120;24.732;2023-04-03T02:00:10;98626.72;;;12.32;64.79
8416;BME280;4245;42.120;24.732;2023-04-03T02:02:37;98617.72;;;12.24;65.50
8416;BME280;4245;42.120;24.732;2023-04-03T02:05:05;98628.63;;;12.20;65.55
8416;BME280;4245;42.120;24.732;2023-04-03T02:07:33;98626.50;;;12.14;65.97
8416;BME280;4245;42.120;24.732;2023-04-03T02:10:01;98631.13;;;12.12;66.48
8416;BME280;4245;42.120;24.732;2023-04-03T02:12:28;98631.63;;;12.06;67.15
8416;BME280;4245;42.120;24.732;2023-04-03T02:14:55;98625.47;;;12.06;67.75
8416;BME280;4245;42.120;24.732;2023-04-03T02:17:22;98629.78;;;11.97;68.21
8416;BME280;4245;42.120;24.732;2023-04-03T02:19:49;98627.69;;;12.01;67.52
8416;BME280;4245;42.120;24.732;2023-04-03T02:22:16;98622.97;;;12.04;67.26
8416;BME280;4245;42.120;24.732;2023-04-03T02:24:44;98626.41;;;11.95;67.48
8416;BME280;4245;42.120;24.732;2023-04-03T02:27:11;98627.38;;;11.94;67.77
8416;BME280;4245;42.120;24.732;2023-04-03T02:29:38;98636.22;;;11.95;68.24
8416;BME280;4245;42.120;24.732;2023-04-03T02:32:05;98631.78;;;12.05;67.95
8416;BME280;4245;42.120;24.732;2023-04-03T02:34:32;98633.00;;;12.01;67.23
8416;BME280;4245;42.120;24.732;2023-04-03T02:36:59;98627.84;;;11.99;67.31
8416;BME280;4245;42.120;24.732;2023-04-03T02:39:26;98631.75;;;11.95;67.93
8416;BME280;4245;42.120;24.732;2023-04-03T02:41:54;98633.56;;;11.95;67.68
8416;BME280;4245;42.120;24.732;2023-04-03T02:44:21;98630.63;;;11.98;67.34
8416;BME280;4245;42.120;24.732;2023-04-03T02:46:49;98622.97;;;11.84;68.70
8416;BME280;4245;42.120;24.732;2023-04-03T02:49:15;98620.00;;;11.77;69.96
8416;BME280;4245;42.120;24.732;2023-04-03T02:51:42;98626.31;;;11.76;69.76
8416;BME280;4245;42.120;24.732;2023-04-03T02:54:09;98625.09;;;11.69;70.21
8416;BME280;4245;42.120;24.732;2023-04-03T02:56:36;98623.50;;;11.57;70.89
8416;BME280;4245;42.120;24.732;2023-04-03T02:59:05;98626.50;;;11.31;71.27
8416;BME280;4245;42.120;24.732;2023-04-03T03:01:32;98618.31;;;11.23;72.04
8416;BME280;4245;42.120;24.732;2023-04-03T03:03:59;98611.97;;;11.15;71.71
8416;BME280;4245;42.120;24.732;2023-04-03T03:06:26;98612.91;;;10.93;72.71
8416;BME280;4245;42.120;24.732;2023-04-03T03:08:54;98604.19;;;10.91;73.09
8416;BME280;4245;42.120;24.732;2023-04-03T03:11:20;98598.22;;;10.78;74.67
8416;BME280;4245;42.120;24.732;2023-04-03T03:13:48;98594.31;;;10.82;74.00
8416;BME280;4245;42.120;24.732;2023-04-03T03:16:16;98594.25;;;10.72;75.11
8416;BME280;4245;42.120;24.732;2023-04-03T03:18:43;98601.72;;;10.67;76.42
8416;BME280;4245;42.120;24.732;2023-04-03T03:21:11;98599.94;;;10.68;75.91
8416;BME280;4245;42.120;24.732;2023-04-03T03:23:38;98594.59;;;10.79;74.86
8416;BME280;4245;42.120;24.732;2023-04-03T03:26:07;98590.00;;;10.70;76.83
8416;BME280;4245;42.120;24.732;2023-04-03T03:28:34;98592.81;;;10.57;77.36
8416;BME280;4245;42.120;24.732;2023-04-03T03:31:02;98584.47;;;10.62;78.34
8416;BME280;4245;42.120;24.732;2023-04-03T03:33:31;98584.47;;;10.73;76.92
8416;BME280;4245;42.120;24.732;2023-04-03T03:35:58;98581.06;;;10.71;76.18
8416;BME280;4245;42.120;24.732;2023-04-03T03:38:25;98581.13;;;10.60;78.05
8416;BME280;4245;42.120;24.732;2023-04-03T03:40:52;98582.38;;;10.76;76.51
8416;BME280;4245;42.120;24.732;2023-04-03T03:43:19;98587.50;;;10.68;76.33
8416;BME280;4245;42.120;24.732;2023-04-03T03:45:50;98591.50;;;10.63;77.01
8416;BME280;4245;42.120;24.732;2023-04-03T03:48:17;98595.25;;;10.49;78.20
8416;BME280;4245;42.120;24.732;2023-04-03T03:50:46;98599.63;;;10.50;78.83
8416;BME280;4245;42.120;24.732;2023-04-03T03:53:13;98608.28;;;10.52;77.30
8416;BME280;4245;42.120;24.732;2023-04-03T03:55:40;98609.63;;;10.46;77.75
8416;BME280;4245;42.120;24.732;2023-04-03T03:58:07;98606.63;;;10.40;79.44
8416;BME280;4245;42.120;24.732;2023-04-03T04:00:34;98608.44;;;10.28;82.57
8416;BME280;4245;42.120;24.732;2023-04-03T04:03:01;98610.84;;;10.31;79.93
8416;BME280;4245;42.120;24.732;2023-04-03T04:05:28;98614.09;;;10.01;81.63
8416;BME280;4245;42.120;24.732;2023-04-03T04:07:57;98620.13;;;10.15;80.29
8416;BME280;4245;42.120;24.732;2023-04-03T04:10:24;98624.47;;;10.27;79.18
8416;BME280;4245;42.120;24.732;2023-04-03T04:12:51;98630.16;;;10.33;78.58
8416;BME280;4245;42.120;24.732;2023-04-03T04:15:18;98623.25;;;10.09;79.27
8416;BME280;4245;42.120;24.732;2023-04-03T04:17:47;98621.06;;;10.14;78.57
8416;BME280;4245;42.120;24.732;2023-04-03T04:20:14;98624.63;;;10.25;78.15
8416;BME280;4245;42.120;24.732;2023-04-03T04:22:41;98638.00;;;10.24;78.78
8416;BME280;4245;42.120;24.732;2023-04-03T04:25:09;98642.41;;;10.12;78.37
8416;BME280;4245;42.120;24.732;2023-04-03T04:27:36;98643.50;;;10.10;78.99
8416;BME280;4245;42.120;24.732;2023-04-03T04:30:04;98637.84;;;10.14;79.54
8416;BME280;4245;42.120;24.732;2023-04-03T04:32:32;98638.47;;;10.07;79.88
8416;BME280;4245;42.120;24.732;2023-04-03T04:34:59;98643.41;;;10.11;78.23
8416;BME280;4245;42.120;24.732;2023-04-03T04:37:26;98641.84;;;10.42;78.71
8416;BME280;4245;42.120;24.732;2023-04-03T04:39:53;98645.94;;;10.57;78.69
8416;BME280;4245;42.120;24.732;2023-04-03T04:42:21;98651.59;;;10.64;77.68
8416;BME280;4245;42.120;24.732;2023-04-03T04:44:48;98633.44;;;10.80;78.50
8416;BME280;4245;42.120;24.732;2023-04-03T04:47:15;98627.63;;;10.97;78.57
8416;BME280;4245;42.120;24.732;2023-04-03T04:49:42;98628.41;;;11.09;77.54
8416;BME280;4245;42.120;24.732;2023-04-03T04:52:09;98648.47;;;11.33;77.80
8416;BME280;4245;42.120;24.732;2023-04-03T04:54:36;98658.31;;;11.54;78.59
8416;BME280;4245;42.120;24.732;2023-04-03T04:57:03;98651.81;;;11.67;79.86
8416;BME280;4245;42.120;24.732;2023-04-03T04:59:31;98662.56;;;11.77;77.87
8416;BME280;4245;42.120;24.732;2023-04-03T05:01:58;98658.09;;;11.77;74.60
8416;BME280;4245;42.120;24.732;2023-04-03T05:04:26;98660.34;;;11.82;74.90
8416;BME280;4245;42.120;24.732;2023-04-03T05:06:53;98651.63;;;12.01;77.48
8416;BME280;4245;42.120;24.732;2023-04-03T05:09:19;98664.31;;;12.08;74.51
8416;BME280;4245;42.120;24.732;2023-04-03T05:11:46;98662.97;;;12.24;74.39
8416;BME280;4245;42.120;24.732;2023-04-03T05:14:13;98656.69;;;12.25;71.98
8416;BME280;4245;42.120;24.732;2023-04-03T05:16:42;98663.03;;;12.33;70.64
8416;BME280;4245;42.120;24.732;2023-04-03T05:19:09;98676.19;;;12.35;69.99
8416;BME280;4245;42.120;24.732;2023-04-03T05:21:36;98676.47;;;12.32;70.85
8416;BME280;4245;42.120;24.732;2023-04-03T05:24:03;98681.00;;;12.41;72.33
8416;BME280;4245;42.120;24.732;2023-04-03T05:26:30;98687.56;;;12.37;70.49
8416;BME280;4245;42.120;24.732;2023-04-03T05:28:57;98685.31;;;12.32;71.00
8416;BME280;4245;42.120;24.732;2023-04-03T05:31:24;98679.25;;;12.30;70.72
8416;BME280;4245;42.120;24.732;2023-04-03T05:33:56;98693.38;;;12.51;70.45
8416;BME280;4245;42.120;24.732;2023-04-03T05:36:23;98687.19;;;12.51;70.00
8416;BME280;4245;42.120;24.732;2023-04-03T05:38:51;98681.94;;;12.70;68.68
8416;BME280;4245;42.120;24.732;2023-04-03T05:41:18;98689.97;;;12.80;68.46
8416;BME280;4245;42.120;24.732;2023-04-03T05:43:46;98691.75;;;12.70;68.27
8416;BME280;4245;42.120;24.732;2023-04-03T05:46:14;98694.00;;;12.34;70.81
8416;BME280;4245;42.120;24.732;2023-04-03T05:48:41;98700.47;;;12.41;71.59
8416;BME280;4245;42.120;24.732;2023-04-03T05:51:14;98702.66;;;12.57;70.55
8416;BME280;4245;42.120;24.732;2023-04-03T05:53:42;98704.38;;;12.68;70.81
8416;BME280;4245;42.120;24.732;2023-04-03T05:56:10;98702.19;;;12.82;70.59
8416;BME280;4245;42.120;24.732;2023-04-03T05:58:37;98706.56;;;12.93;69.27
8416;BME280;4245;42.120;24.732;2023-04-03T06:01:04;98701.38;;;12.91;70.30
8416;BME280;4245;42.120;24.732;2023-04-03T06:03:32;98698.84;;;12.90;69.59
8416;BME280;4245;42.120;24.732;2023-04-03T06:05:59;98700.38;;;12.83;70.20
8416;BME280;4245;42.120;24.732;2023-04-03T06:08:27;98703.31;;;13.48;81.28
8416;BME280;4245;42.120;24.732;2023-04-03T06:10:54;98699.22;;;14.58;86.01
8416;BME280;4245;42.120;24.732;2023-04-03T06:13:21;98707.72;;;14.81;72.76
8416;BME280;4245;42.120;24.732;2023-04-03T06:15:49;98709.22;;;15.11;68.45
8416;BME280;4245;42.120;24.732;2023-04-03T06:18:16;98704.38;;;15.42;68.03
8416;BME280;4245;42.120;24.732;2023-04-03T06:20:43;98707.97;;;15.50;64.05
8416;BME280;4245;42.120;24.732;2023-04-03T06:23:10;98716.09;;;16.12;60.53
8416;BME280;4245;42.120;24.732;2023-04-03T06:25:38;98709.50;;;16.58;68.39
8416;BME280;4245;42.120;24.732;2023-04-03T06:28:06;98712.25;;;16.40;62.49
8416;BME280;4245;42.120;24.732;2023-04-03T06:30:34;98703.84;;;16.94;58.53
8416;BME280;4245;42.120;24.732;2023-04-03T06:33:02;98699.66;;;16.92;55.18
8416;BME280;4245;42.120;24.732;2023-04-03T06:35:29;98702.53;;;16.99;55.80
8416;BME280;4245;42.120;24.732;2023-04-03T06:37:56;98707.50;;;17.35;54.24
8416;BME280;4245;42.120;24.732;2023-04-03T06:40:24;98708.00;;;17.39;52.47
8416;BME280;4245;42.120;24.732;2023-04-03T06:42:53;98718.88;;;17.29;54.28
8416;BME280;4245;42.120;24.732;2023-04-03T06:45:44;98727.41;;;17.09;50.00
8416;BME280;4245;42.120;24.732;2023-04-03T06:48:11;98734.84;;;16.37;49.75
8416;BME280;4245;42.120;24.732;2023-04-03T06:50:39;98736.31;;;15.53;53.22
8416;BME280;4245;42.120;24.732;2023-04-03T06:53:06;98732.84;;;15.15;56.83
8416;BME280;4245;42.120;24.732;2023-04-03T06:55:33;98734.66;;;15.25;57.76
8416;BME280;4245;42.120;24.732;2023-04-03T06:58:01;98726.38;;;15.36;58.27
8416;BME280;4245;42.120;24.732;2023-04-03T07:00:29;98726.88;;;15.49;60.51
8416;BME280;4245;42.120;24.732;2023-04-03T07:02:56;98718.00;;;15.48;55.65
8416;BME280;4245;42.120;24.732;2023-04-03T07:05:23;98721.28;;;15.25;55.47
8416;BME280;4245;42.120;24.732;2023-04-03T07:07:50;98730.03;;;15.17;55.77
8416;BME280;4245;42.120;24.732;2023-04-03T07:10:17;98728.56;;;15.05;58.65
8416;BME280;4245;42.120;24.732;2023-04-03T07:12:44;98735.47;;;15.25;55.94
8416;BME280;4245;42.120;24.732;2023-04-03T07:15:13;98734.09;;;15.21;56.29
8416;BME280;4245;42.120;24.732;2023-04-03T07:17:40;98734.50;;;14.99;58.44
8416;BME280;4245;42.120;24.732;2023-04-03T07:20:08;98741.38;;;15.01;57.83
8416;BME280;4245;42.120;24.732;2023-04-03T07:22:35;98733.75;;;15.06;58.87
8416;BME280;4245;42.120;24.732;2023-04-03T07:25:02;98718.22;;;15.37;59.62
8416;BME280;4245;42.120;24.732;2023-04-03T07:27:29;98721.34;;;15.33;60.14
8416;BME280;4245;42.120;24.732;2023-04-03T07:29:57;98708.78;;;15.60;57.95
8416;BME280;4245;42.120;24.732;2023-04-03T07:32:25;98711.72;;;15.40;56.73
8416;BME280;4245;42.120;24.732;2023-04-03T07:34:52;98710.44;;;15.44;61.48
8416;BME280;4245;42.120;24.732;2023-04-03T07:37:19;98706.63;;;15.82;64.22
8416;BME280;4245;42.120;24.732;2023-04-03T07:39:46;98710.44;;;15.97;60.29
8416;BME280;4245;42.120;24.732;2023-04-03T07:42:14;98709.88;;;16.37;60.32
8416;BME280;4245;42.120;24.732;2023-04-03T07:44:40;98717.25;;;16.61;53.84
8416;BME280;4245;42.120;24.732;2023-04-03T07:47:08;98712.91;;;16.60;57.66
8416;BME280;4245;42.120;24.732;2023-04-03T07:49:36;98707.34;;;16.87;59.57
8416;BME280;4245;42.120;24.732;2023-04-03T07:52:06;98706.38;;;16.96;55.75
8416;BME280;4245;42.120;24.732;2023-04-03T07:54:34;98704.94;;;17.18;54.08
8416;BME280;4245;42.120;24.732;2023-04-03T07:57:01;98705.81;;;17.34;55.45
8416;BME280;4245;42.120;24.732;2023-04-03T07:59:28;98707.06;;;17.56;53.86
8416;BME280;4245;42.120;24.732;2023-04-03T08:01:55;98701.03;;;17.78;57.03
8416;BME280;4245;42.120;24.732;2023-04-03T08:04:22;98694.50;;;18.30;56.64
8416;BME280;4245;42.120;24.732;2023-04-03T08:06:50;98703.84;;;18.66;55.35
8416;BME280;4245;42.120;24.732;2023-04-03T08:09:18;98699.00;;;19.00;49.71
8416;BME280;4245;42.120;24.732;2023-04-03T08:11:45;98698.88;;;19.25;51.47
8416;BME280;4245;42.120;24.732;2023-04-03T08:14:13;98691.97;;;19.22;47.24
8416;BME280;4245;42.120;24.732;2023-04-03T08:16:44;98700.47;;;19.42;49.36
8416;BME280;4245;42.120;24.732;2023-04-03T08:19:11;98694.06;;;19.43;48.58
8416;BME280;4245;42.120;24.732;2023-04-03T08:21:39;98690.56;;;19.12;47.72
8416;BME280;4245;42.120;24.732;2023-04-03T08:24:08;98692.09;;;18.98;43.39
8416;BME280;4245;42.120;24.732;2023-04-03T08:26:35;98681.44;;;18.74;47.21
8416;BME280;4245;42.120;24.732;2023-04-03T08:29:02;98689.53;;;18.65;43.99
8416;BME280;4245;42.120;24.732;2023-04-03T08:31:29;98682.00;;;18.45;47.38
8416;BME280;4245;42.120;24.732;2023-04-03T08:33:57;98677.34;;;18.06;49.28
8416;BME280;4245;42.120;24.732;2023-04-03T08:36:25;98685.44;;;18.14;44.52
8416;BME280;4245;42.120;24.732;2023-04-03T08:38:54;98669.66;;;17.95;45.18
8416;BME280;4245;42.120;24.732;2023-04-03T08:41:29;98660.09;;;17.76;47.94
8416;BME280;4245;42.120;24.732;2023-04-03T08:44:13;98666.28;;;17.77;47.07
8416;BME280;4245;42.120;24.732;2023-04-03T08:46:49;98655.72;;;17.75;46.80
8416;BME280;4245;42.120;24.732;2023-04-03T08:49:25;98652.53;;;17.64;48.97
8416;BME280;4245;42.120;24.732;2023-04-03T08:51:54;98651.19;;;17.76;47.36
8416;BME280;4245;42.120;24.732;2023-04-03T08:54:30;98650.13;;;17.45;46.84
8416;BME280;4245;42.120;24.732;2023-04-03T08:57:02;98647.09;;;17.39;48.27
8416;BME280;4245;42.120;24.732;2023-04-03T08:59:33;98637.69;;;17.35;48.25
8416;BME280;4245;42.120;24.732;2023-04-03T09:02:04;98638.53;;;17.28;49.69
8416;BME280;4245;42.120;24.732;2023-04-03T09:04:38;98644.59;;;17.54;49.52
8416;BME280;4245;42.120;24.732;2023-04-03T09:07:10;98640.38;;;17.44;48.46
8416;BME280;4245;42.120;24.732;2023-04-03T09:09:41;98648.88;;;16.99;50.67
8416;BME280;4245;42.120;24.732;2023-04-03T09:12:17;98646.28;;;16.81;52.14
8416;BME280;4245;42.120;24.732;2023-04-03T09:14:54;98642.28;;;16.85;53.27
8416;BME280;4245;42.120;24.732;2023-04-03T09:17:33;98639.66;;;17.01;53.89
8416;BME280;4245;42.120;24.732;2023-04-03T09:20:11;98648.03;;;16.98;53.25
8416;BME280;4245;42.120;24.732;2023-04-03T09:22:43;98635.59;;;16.89;54.10
8416;BME280;4245;42.120;24.732;2023-04-03T09:25:13;98637.41;;;16.80;56.19
8416;BME280;4245;42.120;24.732;2023-04-03T09:27:43;98637.31;;;16.98;53.58
8416;BME280;4245;42.120;24.732;2023-04-03T09:30:13;98633.06;;;16.79;54.11
8416;BME280;4245;42.120;24.732;2023-04-03T09:32:43;98633.59;;;16.57;54.70
8416;BME280;4245;42.120;24.732;2023-04-03T09:35:18;98637.59;;;16.53;54.93
8416;BME280;4245;42.120;24.732;2023-04-03T09:37:47;98627.63;;;16.37;54.90
8416;BME280;4245;42.120;24.732;2023-04-03T09:40:36;98624.59;;;16.32;55.20
8416;BME280;4245;42.120;24.732;2023-04-03T09:43:33;98627.75;;;16.28;55.30
8416;BME280;4245;42.120;24.732;2023-04-03T09:46:17;98619.78;;;16.10;55.78
8416;BME280;4245;42.120;24.732;2023-04-03T09:48:50;98611.41;;;16.13;57.13
8416;BME280;4245;42.120;24.732;2023-04-03T09:51:17;98605.91;;;16.15;57.05
8416;BME280;4245;42.120;24.732;2023-04-03T09:53:44;98600.78;;;15.95;57.93
8416;BME280;4245;42.120;24.732;2023-04-03T09:56:21;98596.88;;;15.90;59.86
8416;BME280;4245;42.120;24.732;2023-04-03T09:58:52;98602.59;;;15.95;60.71
8416;BME280;4245;42.120;24.732;2023-04-03T10:01:33;98612.94;;;15.90;61.78
8416;BME280;4245;42.120;24.732;2023-04-03T10:04:07;98615.78;;;15.88;63.25
8416;BME280;4245;42.120;24.732;2023-04-03T10:06:37;98614.41;;;15.84;64.15
8416;BME280;4245;42.120;24.732;2023-04-03T10:09:16;98618.41;;;15.80;64.56
8416;BME280;4245;42.120;24.732;2023-04-03T10:12:00;98618.59;;;15.61;66.77
8416;BME280;4245;42.120;24.732;2023-04-03T10:14:32;98609.44;;;15.63;66.65
8416;BME280;4245;42.120;24.732;2023-04-03T10:17:09;98597.31;;;15.59;68.06
8416;BME280;4245;42.120;24.732;2023-04-03T10:19:41;98601.75;;;15.69;68.39
8416;BME280;4245;42.120;24.732;2023-04-03T10:22:23;98602.19;;;15.82;68.71
8416;BME280;4245;42.120;24.732;2023-04-03T10:25:01;98613.06;;;15.80;69.10
8416;BME280;4245;42.120;24.732;2023-04-03T10:27:44;98604.66;;;15.75;69.68
8416;BME280;4245;42.120;24.732;2023-04-03T10:30:30;98596.28;;;15.78;69.46
8416;BME280;4245;42.120;24.732;2023-04-03T10:33:10;98601.91;;;15.93;68.66
8416;BME280;4245;42.120;24.732;2023-04-03T10:35:44;98605.63;;;15.92;69.47
8416;BME280;4245;42.120;24.732;2023-04-03T10:38:21;98609.28;;;16.17;67.74
8416;BME280;4245;42.120;24.732;2023-04-03T10:40:58;98606.72;;;16.07;68.61
8416;BME280;4245;42.120;24.732;2023-04-03T10:43:33;98614.47;;;16.18;68.53
8416;BME280;4245;42.120;24.732;2023-04-03T10:46:09;98618.50;;;16.22;69.20
8416;BME280;4245;42.120;24.732;2023-04-03T10:51:29;98622.53;;;15.92;72.99
8416;BME280;4245;42.120;24.732;2023-04-03T10:54:01;98622.19;;;15.95;74.85
8416;BME280;4245;42.120;24.732;2023-04-03T10:56:33;98626.09;;;16.01;73.97
8416;BME280;4245;42.120;24.732;2023-04-03T10:59:13;98627.66;;;15.86;75.86
8416;BME280;4245;42.120;24.732;2023-04-03T11:01:46;98626.34;;;15.90;76.66
8416;BME280;4245;42.120;24.732;2023-04-03T11:04:15;98619.81;;;15.67;77.00
8416;BME280;4245;42.120;24.732;2023-04-03T11:06:45;98619.91;;;15.57;79.53
8416;BME280;4245;42.120;24.732;2023-04-03T11:09:19;98625.88;;;15.51;80.46
8416;BME280;4245;42.120;24.732;2023-04-03T11:11:51;98627.41;;;15.53;79.96
8416;BME280;4245;42.120;24.732;2023-04-03T11:14:26;98620.72;;;15.40;81.58
8416;BME280;4245;42.120;24.732;2023-04-03T11:17:01;98613.22;;;15.26;83.04
8416;BME280;4245;42.120;24.732;2023-04-03T11:19:34;98620.06;;;15.20;84.46
8416;BME280;4245;42.120;24.732;2023-04-03T11:22:06;98603.69;;;15.23;85.94
8416;BME280;4245;42.120;24.732;2023-04-03T11:24:39;98598.66;;;15.20;86.82
8416;BME280;4245;42.120;24.732;2023-04-03T11:27:12;98595.53;;;15.25;88.50
8416;BME280;4245;42.120;24.732;2023-04-03T11:29:43;98597.56;;;15.31;89.80
8416;BME280;4245;42.120;24.732;2023-04-03T11:32:26;98591.50;;;15.46;89.65
8416;BME280;4245;42.120;24.732;2023-04-03T11:34:59;98595.03;;;15.47;90.36
8416;BME280;4245;42.120;24.732;2023-04-03T11:37:31;98588.00;;;15.46;90.33
8416;BME280;4245;42.120;24.732;2023-04-03T11:40:03;98584.41;;;15.55;89.97
8416;BME280;4245;42.120;24.732;2023-04-03T11:42:34;98589.94;;;15.53;89.66
8416;BME280;4245;42.120;24.732;2023-04-03T11:45:25;98592.06;;;15.68;86.90
8416;BME280;4245;42.120;24.732;2023-04-03T11:47:56;98585.38;;;15.72;86.44
8416;BME280;4245;42.120;24.732;2023-04-03T11:50:44;98581.22;;;16.03;87.87
8416;BME280;4245;42.120;24.732;2023-04-03T11:53:33;98588.19;;;16.22;82.18
8416;BME280;4245;42.120;24.732;2023-04-03T12:01:54;98579.59;;;15.58;87.49
8416;BME280;4245;42.120;24.732;2023-04-03T12:04:24;98576.75;;;15.42;88.95
8416;BME280;4245;42.120;24.732;2023-04-03T12:07:00;98574.31;;;15.31;92.11
8416;BME280;4245;42.120;24.732;2023-04-03T12:10:17;98563.31;;;15.16;94.81
8416;BME280;4245;42.120;24.732;2023-04-03T12:12:56;98559.59;;;15.09;95.99
8416;BME280;4245;42.120;24.732;2023-04-03T12:15:49;98554.25;;;15.09;97.37
8416;BME280;4245;42.120;24.732;2023-04-03T12:18:41;98556.38;;;15.06;98.97
8416;BME280;4245;42.120;24.732;2023-04-03T12:21:11;98562.50;;;14.98;100.00
8416;BME280;4245;42.120;24.732;2023-04-03T12:23:59;98562.34;;;15.00;100.00
8416;BME280;4245;42.120;24.732;2023-04-03T12:26:28;98554.94;;;14.94;100.00
8416;BME280;4245;42.120;24.732;2023-04-03T12:28:57;98561.78;;;14.78;100.00
8416;BME280;4245;42.120;24.732;2023-04-03T12:31:36;98548.19;;;14.72;100.00
8416;BME280;4245;42.120;24.732;2023-04-03T12:34:17;98544.31;;;14.84;100.00
8416;BME280;4245;42.120;24.732;2023-04-03T12:36:57;98542.47;;;14.85;100.00
8416;BME280;4245;42.120;24.732;2023-04-03T12:39:44;98535.31;;;14.85;100.00
8416;BME280;4245;42.120;24.732;2023-04-03T12:42:25;98535.75;;;14.81;100.00
8416;BME280;4245;42.120;24.732;2023-04-03T12:45:03;98542.09;;;14.79;100.00
8416;BME280;4245;42.120;24.732;2023-04-03T12:47:37;98540.03;;;14.73;100.00
8416;BME280;4245;42.120;24.732;2023-04-03T12:50:17;98535.53;;;14.74;100.00
8416;BME280;4245;42.120;24.732;2023-04-03T12:52:51;98534.81;;;14.72;100.00
8416;BME280;4245;42.120;24.732;2023-04-03T12:55:21;98531.47;;;14.70;100.00
8416;BME280;4245;42.120;24.732;2023-04-03T12:57:48;98527.97;;;14.69;100.00
8416;BME280;4245;42.120;24.732;2023-04-03T13:00:25;98519.03;;;14.61;100.00
8416;BME280;4245;42.120;24.732;2023-04-03T13:02:53;98526.06;;;14.62;100.00
8416;BME280;4245;42.120;24.732;2023-04-03T13:05:22;98525.88;;;14.63;100.00
8416;BME280;4245;42.120;24.732;2023-04-03T13:07:53;98521.16;;;14.75;100.00
8416;BME280;4245;42.120;24.732;2023-04-03T13:10:22;98518.63;;;14.73;100.00
8416;BME280;4245;42.120;24.732;2023-04-03T13:12:51;98512.16;;;14.76;100.00
8416;BME280;4245;42.120;24.732;2023-04-03T13:15:21;98508.72;;;14.66;100.00
8416;BME280;4245;42.120;24.732;2023-04-03T13:17:50;98503.06;;;14.69;100.00
8416;BME280;4245;42.120;24.732;2023-04-03T13:20:21;98502.13;;;14.60;100.00
8416;BME280;4245;42.120;24.732;2023-04-03T13:23:01;98497.25;;;14.56;100.00
8416;BME280;4245;42.120;24.732;2023-04-03T13:25:32;98504.34;;;14.47;100.00
8416;BME280;4245;42.120;24.732;2023-04-03T13:28:01;98495.78;;;14.44;100.00
8416;BME280;4245;42.120;24.732;2023-04-03T13:30:32;98491.59;;;14.41;100.00
8416;BME280;4245;42.120;24.732;2023-04-03T13:33:02;98506.41;;;14.53;100.00
8416;BME280;4245;42.120;24.732;2023-04-03T13:35:36;98494.72;;;14.54;100.00
8416;BME280;4245;42.120;24.732;2023-04-03T13:38:19;98493.88;;;14.54;100.00
8416;BME280;4245;42.120;24.732;2023-04-03T13:40:48;98488.91;;;14.59;100.00